地図

経路データ

SID SEASON NUMBER BASIN SUBBASIN NAME ISO_TIME NATURE LAT LON WMO_WIND WMO_PRES WMO_AGENCY TRACK_TYPE DIST2LAND LANDFALL IFLAG USA_AGENCY USA_ATCF_ID USA_LAT USA_LON USA_RECORD USA_STATUS USA_WIND USA_PRES USA_SSHS USA_R34_NE USA_R34_SE USA_R34_SW USA_R34_NW USA_R50_NE USA_R50_SE USA_R50_SW USA_R50_NW USA_R64_NE USA_R64_SE USA_R64_SW USA_R64_NW USA_POCI USA_ROCI USA_RMW USA_EYE TOKYO_LAT TOKYO_LON TOKYO_GRADE TOKYO_WIND TOKYO_PRES TOKYO_R50_DIR TOKYO_R50_LONG TOKYO_R50_SHORT TOKYO_R30_DIR TOKYO_R30_LONG TOKYO_R30_SHORT TOKYO_LAND CMA_LAT CMA_LON CMA_CAT CMA_WIND CMA_PRES HKO_LAT HKO_LON HKO_CAT HKO_WIND HKO_PRES NEWDELHI_LAT NEWDELHI_LON NEWDELHI_GRADE NEWDELHI_WIND NEWDELHI_PRES NEWDELHI_CI NEWDELHI_DP NEWDELHI_POCI REUNION_LAT REUNION_LON REUNION_TYPE REUNION_WIND REUNION_PRES REUNION_TNUM REUNION_CI REUNION_RMW REUNION_R34_NE REUNION_R34_SE REUNION_R34_SW REUNION_R34_NW REUNION_R50_NE REUNION_R50_SE REUNION_R50_SW REUNION_R50_NW REUNION_R64_NE REUNION_R64_SE REUNION_R64_SW REUNION_R64_NW BOM_LAT BOM_LON BOM_TYPE BOM_WIND BOM_PRES BOM_TNUM BOM_CI BOM_RMW BOM_R34_NE BOM_R34_SE BOM_R34_SW BOM_R34_NW BOM_R50_NE BOM_R50_SE BOM_R50_SW BOM_R50_NW BOM_R64_NE BOM_R64_SE BOM_R64_SW BOM_R64_NW BOM_ROCI BOM_POCI BOM_EYE BOM_POS_METHOD BOM_PRES_METHOD NADI_LAT NADI_LON NADI_CAT NADI_WIND NADI_PRES WELLINGTON_LAT WELLINGTON_LON WELLINGTON_WIND WELLINGTON_PRES DS824_LAT DS824_LON DS824_STAGE DS824_WIND DS824_PRES TD9636_LAT TD9636_LON TD9636_STAGE TD9636_WIND TD9636_PRES TD9635_LAT TD9635_LON TD9635_WIND TD9635_PRES TD9635_ROCI NEUMANN_LAT NEUMANN_LON NEUMANN_CLASS NEUMANN_WIND NEUMANN_PRES MLC_LAT MLC_LON MLC_CLASS MLC_WIND MLC_PRES USA_GUST BOM_GUST BOM_GUST_PER REUNION_GUST REUNION_GUST_PER USA_SEAHGT USA_SEARAD_NE USA_SEARAD_SE USA_SEARAD_SW USA_SEARAD_NW STORM_SPEED STORM_DIR
1979118S06094 1979 34 SI WA NOT_NAMED 1979-04-28 00:00:00 TS -6.00000 94.0000 spur-merge 726 726 O________OO___ jtwc_sh SH271979 -6.00000 94.0000 25 -1 -6.00000 94.0000 TC 25 -6.00000 94.0000 1 2 0
1979118S06094 1979 34 SI WA NOT_NAMED 1979-04-28 03:00:00 TS -6.09197 94.0058 spur-merge 734 734 P________PP___ SH271979 -6.09500 94.0150 27 -1 -6.09500 94.0150 TC 27 -6.08591 93.9874 1 2 0
1979118S06094 1979 34 SI WA NOT_NAMED 1979-04-28 06:00:00 TS -6.19582 93.9866 spur-merge 741 741 O________OP___ jtwc_sh SH271979 -6.20000 94.0000 30 -1 -6.20000 94.0000 TC 30 -6.18745 93.9598 1 2 201
1979118S06094 1979 34 SI WA NOT_NAMED 1979-04-28 09:00:00 TS -6.32509 93.9208 spur-merge 757 757 P________PP___ SH271979 -6.32749 93.9300 30 -1 -6.32749 93.9300 TC 30 -6.32027 93.9024 1 4 211
1979118S06094 1979 34 SI WA NOT_NAMED 1979-04-28 12:00:00 TS -6.50000 93.8000 spur-merge 780 780 O________OO___ jtwc_sh SH271979 -6.50000 93.8000 30 -1 -6.50000 93.8000 TC 30 -6.50000 93.8000 1 25 5 216
1979118S06094 1979 34 SI WA NOT_NAMED 1979-04-28 15:00:00 TS -6.73482 93.6200 spur-merge 812 812 P________PP___ SH271979 -6.73502 93.6075 30 -1 -6.73502 93.6075 TC 30 -6.73443 93.6449 1 26 6 217
1979118S06094 1979 34 SI WA NOT_NAMED 1979-04-28 18:00:00 TS -7.00003 93.4193 spur-merge 851 851 O________OP___ jtwc_sh SH271979 -7.00000 93.4000 30 -1 -7.00000 93.4000 TC 30 -7.00009 93.4577 1 27 7 215
1979118S06094 1979 34 SI WA NOT_NAMED 1979-04-28 21:00:00 TS -7.26523 93.2456 spur-merge 890 890 P________PP___ SH271979 -7.26499 93.2350 27 -1 -7.26499 93.2350 TC 27 -7.26569 93.2667 1 28 6 212
1979118S06094 1979 34 SI WA NOT_NAMED 1979-04-29 00:00:00 TS -7.50000 93.1000 spur-merge 914 914 O________OO___ jtwc_sh SH271979 -7.50000 93.1000 25 -1 -7.50000 93.1000 TC 25 -7.50000 93.1000 1 30 5 212
1979118S06094 1979 34 SI WA NOT_NAMED 1979-04-29 03:00:00 TS -7.67133 92.9901 spur-merge 938 938 P________PP___ SH271979 -7.67249 92.9850 25 -1 -7.67249 92.9850 TC 25 -7.66901 93.0002 1 4 212
1979118S06094 1979 34 SI WA NOT_NAMED 1979-04-29 06:00:00 TS -7.80081 92.9091 spur-merge 953 953 O________OP___ jtwc_sh SH271979 -7.80000 92.9000 25 -1 -7.80000 92.9000 TC 25 -7.80243 92.9274 1 3 208
1979118S06094 1979 34 SI WA NOT_NAMED 1979-04-29 09:00:00 TS -7.91321 92.8553 spur-merge 961 961 P________PP___ SH271979 -7.91499 92.8500 25 -1 -7.91499 92.8500 TC 25 -7.90964 92.8659 1 2 207
1979118S06094 1979 34 SI WA NOT_NAMED 1979-04-29 12:00:00 TS -8.00000 92.8000 spur-merge 977 977 O________OO___ jtwc_sh SH271979 -8.00000 92.8000 25 -1 -8.00000 92.8000 TC 25 -8.00000 92.8000 1 2 223
1979118S06094 1979 34 SI WA NOT_NAMED 1979-04-29 15:00:00 TS -8.06176 92.7141 spur-merge 993 993 P________PP___ SH271979 -8.05000 92.7075 25 -1 -8.05000 92.7075 TC 25 -8.08527 92.7274 1 2 237
1979118S06094 1979 34 SI WA NOT_NAMED 1979-04-29 18:00:00 TS -8.11914 92.6150 spur-merge 1000 1000 O________OP___ jtwc_sh SH271979 -8.10000 92.6000 25 -1 -8.10000 92.6000 TC 25 -8.15742 92.6449 1 2 233
1979118S06094 1979 34 SI WA NOT_NAMED 1979-04-29 21:00:00 TS -8.20361 92.5233 spur-merge 1016 1016 P________PP___ SH271979 -8.19248 92.5150 25 -1 -8.19248 92.5150 TC 25 -8.22587 92.5399 1 3 230
1979118S06094 1979 34 SI WA NOT_NAMED 1979-04-30 00:00:00 TS -8.30000 92.4000 spur-merge 1032 1032 O________OO___ jtwc_sh SH271979 -8.30000 92.4000 25 -1 -8.30000 92.4000 TC 25 -8.30000 92.4000 1 25 4 237
1979118S06094 1979 34 SI WA NOT_NAMED 1979-04-30 03:00:00 TS -8.39899 92.2133 spur-merge 1055 1055 P________PP___ SH271979 -8.40000 92.2225 25 -1 -8.40000 92.2225 TC 25 -8.39697 92.1948 1 5 244
1979118S06094 1979 34 SI WA NOT_NAMED 1979-04-30 06:00:00 TS -8.50005 91.9859 spur-merge 1079 1079 O________OP___ jtwc_sh SH271979 -8.50000 92.0000 25 -1 -8.50000 92.0000 TC 25 -8.50014 91.9576 1 5 247
1979118S06094 1979 34 SI WA NOT_NAMED 1979-04-30 09:00:00 TS -8.60110 91.7289 spur-merge 1110 1110 P________PP___ SH271979 -8.60003 91.7350 25 -1 -8.60003 91.7350 TC 25 -8.60322 91.7166 1 5 247
1979118S06094 1979 34 SI WA NOT_NAMED 1979-04-30 12:00:00 TS -8.70000 91.5000 spur-merge 1134 1134 O________OO___ jtwc_sh SH271979 -8.70000 91.5000 25 -1 -8.70000 91.5000 TC 25 -8.70000 91.5000 1 4 238
1979118S06094 1979 34 SI WA NOT_NAMED 1979-04-30 15:00:00 TS -8.80705 91.3924 spur-merge 1150 1150 P________PP___ SH271979 -8.80746 91.3850 25 -1 -8.80746 91.3850 TC 25 -8.80622 91.4072 1 3 223
1979118S06094 1979 34 SI WA NOT_NAMED 1979-04-30 18:00:00 TS -8.90065 91.3109 spur-merge 1165 1165 O________OP___ jtwc_sh SH271979 -8.90000 91.3000 25 -1 -8.90000 91.3000 TC 25 -8.90195 91.3325 1 2 228
1979118S06094 1979 34 SI WA NOT_NAMED 1979-04-30 21:00:00 TS -8.96716 91.2122 spur-merge 1181 1181 P________PP___ SH271979 -8.96488 91.2100 25 -1 -8.96488 91.2100 TC 25 -8.97172 91.2166 1 3 252
1979118S06094 1979 34 SI WA NOT_NAMED 1979-05-01 00:00:00 TS -9.00000 91.0000 spur-merge 1197 1197 O________OO___ jtwc_sh SH271979 -9.00000 91.0000 25 -1 -9.00000 91.0000 TC 25 -9.00000 91.0000 1 6 266
1979118S06094 1979 34 SI WA NOT_NAMED 1979-05-01 03:00:00 TS -9.01776 90.5588 spur-merge 1230 1230 P________PP___ SH271979 -9.03009 90.5526 25 -1 -9.03009 90.5526 TC 25 -8.99310 90.5712 1 10 271
1979118S06094 1979 34 SI WA NOT_NAMED 1979-05-01 06:00:00 TS -8.98029 90.0150 spur-merge 1280 1280 O________OP___ jtwc_sh SH271979 -9.00000 90.0000 25 -1 -9.00000 90.0000 TC 25 -8.94086 90.0449 1 11 278
1979118S06094 1979 34 SI MM NOT_NAMED 1979-05-01 09:00:00 TS -8.87272 89.4787 spur-merge 1317 1317 P________PP___ SH271979 -8.88753 89.4700 27 -1 -8.88753 89.4700 TC 27 -8.84309 89.4962 1 10 286
1979118S06094 1979 34 SI MM NOT_NAMED 1979-05-01 12:00:00 TS -8.70000 89.0000 spur-merge 1348 1348 O________OO___ jtwc_sh SH271979 -8.70000 89.0000 30 -1 -8.70000 89.0000 TC 30 -8.70000 89.0000 1 9 296
1979118S06094 1979 34 SI MM NOT_NAMED 1979-05-01 15:00:00 TS -8.46941 88.6591 spur-merge 1363 1363 P________PP___ SH271979 -8.45741 88.6625 30 -1 -8.45741 88.6625 TC 30 -8.49343 88.6521 1 8 309
1979118S06094 1979 34 SI MM NOT_NAMED 1979-05-01 18:00:00 TS -8.21654 88.3891 spur-merge 1372 1372 O________OP___ jtwc_sh SH271979 -8.20000 88.4000 30 -1 -8.20000 88.4000 TC 30 -8.24963 88.3674 1 7 313
1979118S06094 1979 34 SI MM NOT_NAMED 1979-05-01 21:00:00 TS -7.98699 88.1364 spur-merge 1389 1384 P________PP___ SH271979 -7.97747 88.1425 30 -1 -7.97747 88.1425 TC 30 -8.00603 88.1240 1 6 311
1979118S06094 1979 34 SI MM NOT_NAMED 1979-05-02 00:00:00 TS -7.80000 87.9000 spur-merge 1398 1398 O________OO___ jtwc_sh SH271979 -7.80000 87.9000 30 -1 -7.80000 87.9000 TC 30 -7.80000 87.9000 1 6 302
1979118S06094 1979 34 SI MM NOT_NAMED 1979-05-02 03:00:00 TS -7.68165 87.6473 spur-merge 1420 1415 P________PP___ SH271979 -7.67750 87.6425 30 -1 -7.67750 87.6425 TC 30 -7.68994 87.6568 1 5 292
1979118S06094 1979 34 SI MM NOT_NAMED 1979-05-02 06:00:00 TS -7.60664 87.4092 spur-merge 1434 1434 O________OP___ jtwc_sh SH271979 -7.60000 87.4000 30 -1 -7.60000 87.4000 TC 30 -7.61993 87.4278 1 5 285
1979118S06094 1979 34 SI MM NOT_NAMED 1979-05-02 09:00:00 TS -7.55996 87.2033 spur-merge 1453 1453 P________PP___ SH271979 -7.55747 87.2000 30 -1 -7.55747 87.2000 TC 30 -7.56495 87.2099 1 4 285
1979118S06094 1979 34 SI MM NOT_NAMED 1979-05-02 12:00:00 TS -7.50000 87.0000 spur-merge 1467 1467 O________OO___ jtwc_sh SH271979 -7.50000 87.0000 30 -1 -7.50000 87.0000 TC 30 -7.50000 87.0000 1 5 293
1979118S06094 1979 34 SI MM NOT_NAMED 1979-05-02 15:00:00 TS -7.36138 86.7375 spur-merge 1491 1486 P________PP___ SH271979 -7.35752 86.7425 30 -1 -7.35752 86.7425 TC 30 -7.36910 86.7277 1 6 300
1979118S06094 1979 34 SI MM NOT_NAMED 1979-05-02 18:00:00 TS -7.20918 86.4908 spur-merge 1501 1501 O________OP___ jtwc_sh SH271979 -7.20000 86.5000 30 -1 -7.20000 86.5000 TC 30 -7.22753 86.4724 1 5 302
1979118S06094 1979 34 SI MM NOT_NAMED 1979-05-02 21:00:00 TS -7.08405 86.2870 spur-merge 1515 1514 P________PP___ SH271979 -7.07749 86.2900 30 -1 -7.07749 86.2900 TC 30 -7.09718 86.2809 1 4 306
1979118S06094 1979 34 SI MM NOT_NAMED 1979-05-03 00:00:00 TS -7.00000 86.2000 spur-merge 1514 1507 O________OO___ jtwc_sh SH271979 -7.00000 86.2000 30 -1 -7.00000 86.2000 TC 30 -7.00000 86.2000 1 30 1 11
1979118S06094 1979 34 SI MM NOT_NAMED 1979-05-03 03:00:00 TS -6.98886 86.2924 spur-merge 1507 1491 P________PP___ SH271979 -6.98499 86.2900 30 -1 -6.98499 86.2900 TC 30 -6.99661 86.2972 1 3 91
1979118S06094 1979 34 SI MM NOT_NAMED 1979-05-03 06:00:00 TS -7.00754 86.5008 spur-merge 1491 1471 O________OP___ jtwc_sh SH271979 -7.00000 86.5000 30 -1 -7.00000 86.5000 TC 30 -7.02260 86.5024 1 4 96
1979118S06094 1979 34 SI MM NOT_NAMED 1979-05-03 09:00:00 TS -7.03243 86.7421 spur-merge 1471 1442 P________PP___ SH271979 -7.03001 86.7350 32 -1 -7.03001 86.7350 TC 32 -7.03728 86.7565 1 5 89
1979118S06094 1979 34 SI MM NOT_NAMED 1979-05-03 12:00:00 TS -7.00000 87.0000 spur-merge 1442 1402 O________OO___ jtwc_sh SH271979 -7.00000 87.0000 35 0 -7.00000 87.0000 TC 35 -7.00000 87.0000 1 6 69
1979118S06094 1979 34 SI MM NOT_NAMED 1979-05-03 15:00:00 TS -6.82695 87.2745 spur-merge 1402 1372 P________PP___ SH271979 -6.83002 87.2876 35 0 -6.83002 87.2876 TC 35 -6.82080 87.2483 1 6 50
1979118S06094 1979 34 SI MM NOT_NAMED 1979-05-03 18:00:00 TS -6.59741 87.4867 spur-merge 1372 1353 O________OP___ jtwc_sh SH271979 -6.60000 87.5000 35 0 -6.60000 87.5000 TC 35 -6.59222 87.4602 1 6 35
1979118S06094 1979 34 SI MM NOT_NAMED 1979-05-03 21:00:00 TS -6.36912 87.5923 spur-merge 1353 1342 P________PP___ SH271979 -6.36991 87.6050 35 0 -6.36991 87.6050 TC 35 -6.36753 87.5670 1 4 2
1979118S06094 1979 34 SI MM NOT_NAMED 1979-05-04 00:00:00 TS -6.20000 87.5000 spur-merge 1350 1350 O________OO___ jtwc_sh SH271979 -6.20000 87.5000 35 0 -6.20000 87.5000 TC 35 -6.20000 87.5000 1 5 296
1979118S06094 1979 34 SI MM NOT_NAMED 1979-05-04 03:00:00 TS -6.15647 87.1455 spur-merge 1381 1381 P________PP___ SH271979 -6.16253 87.1325 35 0 -6.16253 87.1325 TC 35 -6.14437 87.1714 1 9 271
1979118S06094 1979 34 SI MM NOT_NAMED 1979-05-04 06:00:00 TS -6.18433 86.6241 spur-merge 1420 1420 O________OP___ jtwc_sh SH271979 -6.20000 86.6000 35 0 -6.20000 86.6000 TC 35 -6.15298 86.6723 1 11 267
1979118S06094 1979 34 SI MM NOT_NAMED 1979-05-04 09:00:00 TS -6.22168 86.0673 spur-merge 1461 1461 P________PP___ SH271979 -6.22751 86.0575 35 0 -6.22751 86.0575 TC 35 -6.21003 86.0871 1 11 264
1979118S06094 1979 34 SI MM NOT_NAMED 1979-05-04 12:00:00 TS -6.30000 85.5000 spur-merge 1471 1462 O________OO___ jtwc_sh SH271979 -6.30000 85.5000 35 0 -6.30000 85.5000 TC 35 -6.30000 85.5000 2 35 11 259
1979118S06094 1979 34 SI MM NOT_NAMED 1979-05-04 15:00:00 TS -6.43382 84.9889 spur-merge 1462 1458 P________PP___ SH271979 -6.44247 84.9776 35 0 -6.44247 84.9776 TC 35 -6.41651 85.0115 2 10 254
1979118S06094 1979 34 SI MM NOT_NAMED 1979-05-04 18:00:00 TS -6.58582 84.5135 spur-merge 1466 1459 O________OP___ jtwc_sh SH271979 -6.60000 84.5000 35 0 -6.60000 84.5000 TC 35 -6.55747 84.5403 2 9 253
1979118S06094 1979 34 SI MM NOT_NAMED 1979-05-04 21:00:00 TS -6.70820 84.0797 spur-merge 1464 1458 P________PP___ SH271979 -6.71496 84.0700 35 0 -6.71496 84.0700 TC 35 -6.69468 84.0990 2 8 255
1979118S06094 1979 34 SI MM NOT_NAMED 1979-05-05 00:00:00 TS -6.80000 83.7000 spur-merge 1464 1459 O________OO___ jtwc_sh SH271979 -6.80000 83.7000 35 0 -6.80000 83.7000 TC 35 -6.80000 83.7000 2 7 257
1979118S06094 1979 34 SI MM NOT_NAMED 1979-05-05 03:00:00 TS -6.86698 83.3743 spur-merge 1467 1460 P________PP___ SH271979 -6.87245 83.3850 40 0 -6.87245 83.3850 TC 40 -6.85605 83.3528 2 6 261
1979118S06094 1979 34 SI MM NOT_NAMED 1979-05-05 06:00:00 TS -6.89158 83.0825 spur-merge 1460 1455 O________OP___ jtwc_sh SH271979 -6.90000 83.1000 45 0 -6.90000 83.1000 TC 45 -6.87475 83.0475 2 6 270
1979118S06094 1979 34 SI MM NOT_NAMED 1979-05-05 09:00:00 TS -6.87202 82.7895 spur-merge 1455 1438 P________PP___ SH271979 -6.87998 82.8000 47 0 -6.87998 82.8000 TC 47 -6.85609 82.7684 2 6 279
1979118S06094 1979 34 SI MM NOT_NAMED 1979-05-05 12:00:00 TS -6.80000 82.5000 spur-merge 1438 1423 O________OO___ jtwc_sh SH271979 -6.80000 82.5000 50 0 -6.80000 82.5000 TC 50 -6.80000 82.5000 2 35 6 290
1979118S06094 1979 34 SI MM NOT_NAMED 1979-05-05 15:00:00 TS -6.66177 82.1927 spur-merge 1423 1397 P________PP___ SH271979 -6.65749 82.1925 50 0 -6.65749 82.1925 TC 50 -6.67033 82.1932 2 38 7 296
1979118S06094 1979 34 SI MM NOT_NAMED 1979-05-05 18:00:00 TS -6.50418 81.8991 spur-merge 1397 1382 O________OP___ jtwc_sh SH271979 -6.50000 81.9000 50 0 -6.50000 81.9000 TC 50 -6.51253 81.8972 2 42 6 298
1979118S06094 1979 34 SI MM NOT_NAMED 1979-05-05 21:00:00 TS -6.36615 81.6325 spur-merge 1382 1370 P________PP___ SH271979 -6.36249 81.6350 50 0 -6.36249 81.6350 TC 50 -6.37347 81.6276 2 46 5 292
1979118S06094 1979 34 SI MM NOT_NAMED 1979-05-06 00:00:00 TS -6.30000 81.4000 spur-merge 1370 1368 O________OO___ jtwc_sh SH271979 -6.30000 81.4000 50 0 -6.30000 81.4000 TC 50 -6.30000 81.4000 2 50 5 271
1979118S06094 1979 34 SI MM NOT_NAMED 1979-05-06 03:00:00 TS -6.35936 81.1785 spur-merge 1379 1379 P________PP___ SH271979 -6.36250 81.1700 50 0 -6.36250 81.1700 TC 50 -6.32653 81.2249 2 50 4 244
1979118S06094 1979 34 SI MM NOT_NAMED 1979-05-06 06:00:00 TS -6.49164 81.0126 spur-merge 1390 1390 O________OP___ jtwc_sh SH271979 -6.50000 81.0000 50 0 -6.50000 81.0000 TC 50 -6.43746 81.0927 2 50 4 222
1979118S06094 1979 34 SI MM NOT_NAMED 1979-05-06 09:00:00 TS -6.64477 80.9204 spur-merge 1401 1401 P________PP___ SH271979 -6.64999 80.9125 50 0 -6.64999 80.9125 TC 50 -6.60466 80.9892 2 50 3 200
1979118S06094 1979 34 SI MM NOT_NAMED 1979-05-06 12:00:00 TS -6.80000 80.9000 spur-merge 1423 1423 O________OO___ jtwc_sh SH271979 -6.80000 80.9000 50 0 -6.80000 80.9000 TC 50 -6.80000 80.9000 2 50 3 184
1979118S06094 1979 34 SI MM NOT_NAMED 1979-05-06 15:00:00 TS -6.90967 80.9197 spur-merge 1434 1434 P________P____ SH271979 -6.91251 80.9375 50 0 -6.91251 80.9375 TC 50 2 2 156
1979118S06094 1979 34 SI MM NOT_NAMED 1979-05-06 18:00:00 TS -7.01915 81.0008 spur-merge 1446 1446 O________O____ jtwc_sh SH271979 -7.00000 81.0000 50 0 -7.00000 81.0000 TC 50 2 3 140
1979118S06094 1979 34 SI MM NOT_NAMED 1979-05-06 21:00:00 TS -7.16072 81.1299 spur-merge 1469 ______________ SH271979 -1 TC 2 4 138

IBTrACS Databaseについて

本データベースは、米国NOAAが公開する1842年以降の世界の熱帯低気圧のベストトラックデータアーカイブInternational Best Track Archive for Climate Stewardship (IBTrACS)を、ウェブで閲覧しやすい形式に変換したものです。

最終更新日:2021-11-26